Time;durP1;ratioP1;P1;durP2;ratioP2;P2;SDS_P1;SDS_P2;PMS_P1;PMS_P2;Temp;Humidity;BMP_temperature;BMP_pressure;BME280_temperature;BME280_humidity;BME280_pressure;Samples;Min_cycle;Max_cycle;Signal;HPM_P1;HPM_P2
2021/12/05 00:23:15;;;;;;;83.80;34.40;;;;;;;;;;5013717;28;20376;-54
2021/12/05 00:25:46;;;;;;;;;;;;;;;;;;5014299;28;20402;-53
2021/12/05 00:50:05;;;;;;;146.00;61.30;;;;;;;;;;5014170;28;20387;-53
2021/12/05 00:55:19;;;;;;;74.72;33.00;;;;;;;;;;5013567;28;20046;-51
2021/12/05 01:06:43;;;;;;;54.10;24.92;;;;;;;;;;5013702;28;20048;-50
2021/12/05 01:14:26;;;;;;;48.47;21.55;;;;;;;;;;5013639;28;20042;-51
2021/12/05 01:16:52;;;;;;;80.53;32.33;;;;;;;;;;5013351;28;20022;-52
2021/12/05 01:19:21;;;;;;;67.57;29.10;;;;;;;;;;5013595;28;20255;-52
2021/12/05 01:21:48;;;;;;;79.40;33.55;;;;;;;;;;5013921;28;20029;-53
2021/12/05 01:40:07;;;;;;;87.50;37.35;;;;;;;;;;5017408;28;20049;-53
2021/12/05 02:11:55;;;;;;;78.68;32.13;;;;;;;;;;5016881;28;20022;-53
2021/12/05 02:41:47;;;;;;;59.80;24.27;;;;;;;;;;5016478;28;20040;-52
2021/12/05 02:44:21;;;;;;;61.22;26.02;;;;;;;;;;5016231;28;20029;-53
2021/12/05 02:46:57;;;;;;;67.72;27.10;;;;;;;;;;5015760;28;20026;-50
2021/12/05 02:49:25;;;;;;;50.78;21.80;;;;;;;;;;5016144;28;20029;-50
2021/12/05 02:51:56;;;;;;;60.65;26.17;;;;;;;;;;5016162;28;20030;-46
2021/12/05 02:54:24;;;;;;;69.53;31.48;;;;;;;;;;5015988;28;20486;-51
2021/12/05 02:56:51;;;;;;;53.92;23.98;;;;;;;;;;5015597;28;20072;-50
2021/12/05 02:59:45;;;;;;;57.45;25.33;;;;;;;;;;5015980;28;20065;-46
2021/12/05 03:02:11;;;;;;;62.00;24.95;;;;;;;;;;5015744;28;20037;-51
2021/12/05 03:04:37;;;;;;;60.33;22.63;;;;;;;;;;5016003;28;20065;-48
2021/12/05 03:07:07;;;;;;;57.65;22.00;;;;;;;;;;5015813;28;20467;-51
2021/12/05 03:09:34;;;;;;;63.15;26.98;;;;;;;;;;5016083;28;20053;-49
2021/12/05 03:12:00;;;;;;;53.88;25.05;;;;;;;;;;5015503;28;20081;-50
2021/12/05 03:14:26;;;;;;;54.00;22.05;;;;;;;;;;5015552;28;20026;-49
2021/12/05 03:16:53;;;;;;;46.63;20.60;;;;;;;;;;5015280;28;20030;-51
2021/12/05 03:19:19;;;;;;;58.95;20.73;;;;;;;;;;5015603;28;20026;-51
2021/12/05 03:21:47;;;;;;;67.57;27.77;;;;;;;;;;5015578;28;20024;-47
2021/12/05 03:24:14;;;;;;;63.58;25.23;;;;;;;;;;5015499;28;20079;-48
2021/12/05 03:26:42;;;;;;;68.88;27.42;;;;;;;;;;5047825;28;20033;-51
2021/12/05 03:29:10;;;;;;;70.95;28.30;;;;;;;;;;5015556;28;20034;-53
2021/12/05 03:31:37;;;;;;;61.85;26.40;;;;;;;;;;5015270;28;20022;-49
2021/12/05 03:34:03;;;;;;;69.10;28.20;;;;;;;;;;5015379;28;20471;-45
2021/12/05 03:36:30;;;;;;;63.78;26.10;;;;;;;;;;5015595;28;20029;-51
2021/12/05 03:38:56;;;;;;;54.97;23.77;;;;;;;;;;5015435;28;20026;-47
2021/12/05 03:41:22;;;;;;;59.03;26.25;;;;;;;;;;5015362;28;20486;-49
2021/12/05 03:43:50;;;;;;;64.10;25.48;;;;;;;;;;5014887;28;20030;-49
2021/12/05 03:46:16;;;;;;;61.28;24.63;;;;;;;;;;5015043;28;20033;-47
2021/12/05 03:48:46;;;;;;;65.65;26.25;;;;;;;;;;5015123;28;20038;-48
2021/12/05 03:51:14;;;;;;;61.95;24.52;;;;;;;;;;5015154;28;20026;-50
2021/12/05 03:53:40;;;;;;;55.67;24.88;;;;;;;;;;5014850;28;20073;-48
2021/12/05 03:56:08;;;;;;;58.40;25.27;;;;;;;;;;5014763;28;20529;-48
2021/12/05 03:58:34;;;;;;;74.40;28.65;;;;;;;;;;5014338;28;20459;-49
2021/12/05 04:01:01;;;;;;;72.25;28.83;;;;;;;;;;5015057;28;20037;-47
2021/12/05 04:03:30;;;;;;;71.65;26.88;;;;;;;;;;5014915;28;20072;-50
2021/12/05 04:05:56;;;;;;;65.53;25.58;;;;;;;;;;5014377;28;20033;-47
2021/12/05 04:08:25;;;;;;;69.30;29.05;;;;;;;;;;5014022;28;20080;-49
2021/12/05 04:10:53;;;;;;;72.30;27.65;;;;;;;;;;5013230;28;20026;-49
2021/12/05 04:13:19;;;;;;;61.50;25.85;;;;;;;;;;5014287;28;20366;-50
2021/12/05 04:15:46;;;;;;;60.28;24.60;;;;;;;;;;5014390;28;20065;-47
2021/12/05 04:18:13;;;;;;;57.08;21.42;;;;;;;;;;5014518;28;20029;-53
2021/12/05 04:20:39;;;;;;;59.67;21.00;;;;;;;;;;5014163;28;20032;-52
2021/12/05 04:23:05;;;;;;;63.83;20.92;;;;;;;;;;5014275;28;20087;-50
2021/12/05 04:25:36;;;;;;;48.83;19.55;;;;;;;;;;5014683;28;20072;-49
2021/12/05 04:28:03;;;;;;;51.40;22.02;;;;;;;;;;5014316;28;20364;-49
2021/12/05 04:30:29;;;;;;;51.60;19.33;;;;;;;;;;5013561;28;20029;-46
2021/12/05 04:32:55;;;;;;;55.03;20.63;;;;;;;;;;5012014;28;20018;-46
2021/12/05 04:35:22;;;;;;;54.08;20.23;;;;;;;;;;5012347;28;20075;-50
2021/12/05 04:37:48;;;;;;;60.25;21.35;;;;;;;;;;5013839;28;20115;-47
2021/12/05 04:40:14;;;;;;;59.95;21.30;;;;;;;;;;5014212;28;20040;-50
2021/12/05 04:42:41;;;;;;;57.88;21.65;;;;;;;;;;5014052;28;20030;-48
2021/12/05 04:45:10;;;;;;;66.18;20.67;;;;;;;;;;5013265;28;20073;-49
2021/12/05 04:47:36;;;;;;;54.92;20.38;;;;;;;;;;5013972;28;20495;-50
2021/12/05 04:50:02;;;;;;;48.70;19.10;;;;;;;;;;5013700;28;20075;-50
2021/12/05 04:52:28;;;;;;;58.28;20.73;;;;;;;;;;5014018;28;20030;-51
2021/12/05 04:54:54;;;;;;;55.88;20.05;;;;;;;;;;5014271;28;20049;-51
2021/12/05 04:57:21;;;;;;;68.18;22.27;;;;;;;;;;5013858;28;20463;-52
2021/12/05 04:59:50;;;;;;;49.80;20.23;;;;;;;;;;5013668;28;20517;-51
2021/12/05 05:02:17;;;;;;;46.42;18.65;;;;;;;;;;5013641;28;20030;-49
2021/12/05 05:04:47;;;;;;;65.88;19.90;;;;;;;;;;5013953;28;20030;-52
2021/12/05 05:07:23;;;;;;;54.67;20.60;;;;;;;;;;5013805;28;20022;-51
2021/12/05 05:09:51;;;;;;;45.78;19.05;;;;;;;;;;5012759;28;20017;-50
2021/12/05 05:12:17;;;;;;;50.28;21.38;;;;;;;;;;5013657;28;20038;-49
2021/12/05 05:14:43;;;;;;;57.60;22.08;;;;;;;;;;5013712;28;20036;-50
2021/12/05 05:17:09;;;;;;;72.95;23.77;;;;;;;;;;5014024;28;20026;-48
2021/12/05 05:19:40;;;;;;;61.28;23.73;;;;;;;;;;5014049;28;20029;-51
2021/12/05 05:51:04;;;;;;;63.40;25.13;;;;;;;;;;5013311;28;20107;-48
2021/12/05 05:53:31;;;;;;;80.93;29.40;;;;;;;;;;5013257;28;20030;-51
2021/12/05 05:55:57;;;;;;;94.65;38.85;;;;;;;;;;5013323;28;20387;-50
2021/12/05 05:58:36;;;;;;;73.05;26.83;;;;;;;;;;5012968;28;20030;-51
2021/12/05 06:01:04;;;;;;;72.95;28.50;;;;;;;;;;5012933;28;20025;-49
2021/12/05 06:03:31;;;;;;;59.42;23.85;;;;;;;;;;5012786;28;20535;-52
2021/12/05 06:06:07;;;;;;;59.00;25.48;;;;;;;;;;5015932;28;20463;-52
2021/12/05 06:08:35;;;;;;;70.80;26.23;;;;;;;;;;5028506;28;20422;-47
2021/12/05 06:11:03;;;;;;;58.03;21.35;;;;;;;;;;5033046;28;20524;-49
2021/12/05 06:13:30;;;;;;;61.22;22.70;;;;;;;;;;5032533;28;20025;-48
2021/12/05 06:15:57;;;;;;;56.53;20.73;;;;;;;;;;5032971;28;20459;-53
2021/12/05 06:18:23;;;;;;;54.97;22.60;;;;;;;;;;5033055;28;20038;-50
2021/12/05 06:20:50;;;;;;;56.63;20.65;;;;;;;;;;5033933;28;20014;-54
2021/12/05 06:23:16;;;;;;;60.42;22.60;;;;;;;;;;5036632;28;20075;-52
2021/12/05 06:25:44;;;;;;;54.15;20.48;;;;;;;;;;5036261;28;20032;-52
2021/12/05 06:28:13;;;;;;;57.60;21.33;;;;;;;;;;5035922;28;20394;-51
2021/12/05 06:31:14;;;;;;;67.30;23.23;;;;;;;;;;5036307;28;20026;-54
2021/12/05 06:47:12;;;;;;;59.13;23.38;;;;;;;;;;5015949;28;20072;-51
2021/12/05 06:49:39;;;;;;;63.78;25.88;;;;;;;;;;5015979;28;20030;-52
2021/12/05 06:52:07;;;;;;;61.47;26.15;;;;;;;;;;5015804;28;20451;-52
2021/12/05 06:54:33;;;;;;;57.25;22.65;;;;;;;;;;5015288;28;20360;-49
2021/12/05 06:57:00;;;;;;;59.08;22.58;;;;;;;;;;5014805;28;20076;-53
2021/12/05 06:59:26;;;;;;;62.15;24.15;;;;;;;;;;5014954;28;20711;-53
2021/12/05 07:01:52;;;;;;;66.10;23.90;;;;;;;;;;5016115;28;20037;-51
2021/12/05 07:07:06;;;;;;;43.45;21.02;;;;;;;;;;5016004;28;20037;-48
2021/12/05 07:09:33;;;;;;;45.47;19.67;;;;;;;;;;5015679;28;20026;-49
2021/12/05 07:14:48;;;;;;;45.45;19.83;;;;;;;;;;5015805;28;20041;-49
2021/12/05 07:25:13;;;;;;;38.75;17.63;;;;;;;;;;5015163;28;20053;-50
2021/12/05 07:41:28;;;;;;;57.25;24.35;;;;;;;;;;5015260;28;20041;-56
2021/12/05 07:43:54;;;;;;;57.40;26.27;;;;;;;;;;5015082;28;20037;-52
2021/12/05 07:46:20;;;;;;;72.85;31.58;;;;;;;;;;5014027;28;20028;-50
2021/12/05 07:48:47;;;;;;;63.03;26.35;;;;;;;;;;5015146;28;20026;-52
2021/12/05 07:53:53;;;;;;;62.17;28.10;;;;;;;;;;5031369;28;20609;-51
2021/12/05 07:56:33;;;;;;;52.10;23.48;;;;;;;;;;5034666;28;20029;-54
2021/12/05 08:15:34;;;;;;;48.63;22.45;;;;;;;;;;5014254;28;20084;-52
2021/12/05 08:18:00;;;;;;;49.40;21.90;;;;;;;;;;5015556;28;20034;-56
2021/12/05 08:20:31;;;;;;;46.90;20.38;;;;;;;;;;5014460;28;20018;-51
2021/12/05 08:22:58;;;;;;;54.80;25.83;;;;;;;;;;5014377;28;20442;-52
2021/12/05 08:25:27;;;;;;;59.47;25.02;;;;;;;;;;5015266;28;20029;-52
2021/12/05 08:28:02;;;;;;;60.33;25.45;;;;;;;;;;5025127;28;20029;-47
2021/12/05 08:30:33;;;;;;;52.60;24.08;;;;;;;;;;5023812;28;20391;-52
2021/12/05 08:41:24;;;;;;;63.95;27.98;;;;;;;;;;5013648;28;20381;-53
2021/12/05 08:43:54;;;;;;;75.65;34.75;;;;;;;;;;5013846;28;20026;-52
2021/12/05 09:25:24;;;;;;;32.95;16.73;;;;;;;;;;5013530;28;20372;-51
2021/12/05 10:03:01;;;;;;;34.70;17.17;;;;;;;;;;5017182;28;20030;-51
2021/12/05 10:37:53;;;;;;;34.58;17.50;;;;;;;;;;5035864;28;20033;-52
2021/12/05 10:40:23;;;;;;;35.60;17.13;;;;;;;;;;5035226;28;20056;-49
2021/12/05 10:42:50;;;;;;;39.42;19.17;;;;;;;;;;5034550;28;20496;-52
2021/12/05 10:45:19;;;;;;;41.63;19.15;;;;;;;;;;5036075;28;20383;-48
2021/12/05 10:47:47;;;;;;;41.03;18.75;;;;;;;;;;5034784;28;20041;-53
2021/12/05 10:50:32;;;;;;;43.20;19.13;;;;;;;;;;5035734;28;20382;-53
2021/12/05 10:53:17;;;;;;;37.13;16.85;;;;;;;;;;5035438;28;20022;-49
2021/12/05 10:55:43;;;;;;;36.22;17.60;;;;;;;;;;5035153;28;20040;-54
2021/12/05 10:58:09;;;;;;;51.65;21.02;;;;;;;;;;5036230;28;20026;-55
2021/12/05 11:00:36;;;;;;;39.45;19.30;;;;;;;;;;5035715;28;20030;-51
2021/12/05 11:03:18;;;;;;;39.60;18.63;;;;;;;;;;5035465;28;20351;-53
2021/12/05 11:05:45;;;;;;;47.42;21.08;;;;;;;;;;5035555;28;20109;-50
2021/12/05 11:08:30;;;;;;;49.03;21.90;;;;;;;;;;5035029;28;20479;-47
2021/12/05 11:11:10;;;;;;;56.00;25.33;;;;;;;;;;5034844;28;20097;-51
2021/12/05 11:13:38;;;;;;;92.75;37.50;;;;;;;;;;5034331;28;20379;-52
2021/12/05 11:16:05;;;;;;;147.52;58.35;;;;;;;;;;5033973;28;20042;-53
2021/12/05 11:18:44;;;;;;;136.82;54.55;;;;;;;;;;5035161;28;20049;-52
2021/12/05 11:21:33;;;;;;;44.05;19.45;;;;;;;;;;5033740;28;20022;-52
2021/12/05 11:24:10;;;;;;;48.55;21.45;;;;;;;;;;5033106;28;20049;-54
2021/12/05 11:26:37;;;;;;;35.05;18.75;;;;;;;;;;5032571;28;20373;-52
2021/12/05 11:29:03;;;;;;;35.17;15.75;;;;;;;;;;5033139;28;20036;-50
2021/12/05 11:31:31;;;;;;;41.35;18.08;;;;;;;;;;5033193;28;20026;-47
2021/12/05 11:33:58;;;;;;;54.75;24.45;;;;;;;;;;5033807;28;20026;-53
2021/12/05 11:36:26;;;;;;;51.55;23.45;;;;;;;;;;5032705;28;20113;-49
2021/12/05 11:38:52;;;;;;;72.72;35.60;;;;;;;;;;5034980;28;20021;-52
2021/12/05 11:41:20;;;;;;;97.18;43.97;;;;;;;;;;5034894;28;20487;-48
2021/12/05 11:43:51;;;;;;;84.95;37.03;;;;;;;;;;5033210;28;20171;-51
2021/12/05 11:46:28;;;;;;;71.90;34.00;;;;;;;;;;5032869;28;20143;-55
2021/12/05 11:48:59;;;;;;;95.82;43.65;;;;;;;;;;5031930;28;20029;-52
2021/12/05 11:51:33;;;;;;;101.70;49.55;;;;;;;;;;5034543;28;20017;-53
2021/12/05 11:54:00;;;;;;;115.43;55.13;;;;;;;;;;5032534;28;20033;-55
2021/12/05 11:56:32;;;;;;;119.78;52.10;;;;;;;;;;5032818;28;20378;-50
2021/12/05 11:59:14;;;;;;;125.60;58.80;;;;;;;;;;5034805;28;20049;-47
2021/12/05 12:01:42;;;;;;;119.07;55.97;;;;;;;;;;5034658;28;20534;-51
2021/12/05 12:04:11;;;;;;;112.55;54.78;;;;;;;;;;5034328;28;20041;-50
2021/12/05 12:06:37;;;;;;;93.90;44.17;;;;;;;;;;5033290;28;20041;-51
2021/12/05 12:09:03;;;;;;;85.18;38.28;;;;;;;;;;5033170;28;20074;-60
2021/12/05 12:11:30;;;;;;;72.88;32.95;;;;;;;;;;5034113;28;20559;-51
2021/12/05 12:13:56;;;;;;;84.10;36.10;;;;;;;;;;5033931;28;20494;-50
2021/12/05 12:16:23;;;;;;;54.03;26.38;;;;;;;;;;5033057;28;20429;-56
2021/12/05 12:18:50;;;;;;;57.72;29.10;;;;;;;;;;5033896;28;20026;-52
2021/12/05 12:21:19;;;;;;;55.15;27.05;;;;;;;;;;5034411;28;20092;-52
2021/12/05 12:23:46;;;;;;;57.65;26.88;;;;;;;;;;5033353;28;20057;-52
2021/12/05 12:26:13;;;;;;;61.40;27.42;;;;;;;;;;5032662;28;20475;-54
2021/12/05 12:28:40;;;;;;;43.83;24.98;;;;;;;;;;5033295;28;20157;-56
2021/12/05 12:31:08;;;;;;;46.55;29.33;;;;;;;;;;5033071;28;20025;-57
2021/12/05 12:33:37;;;;;;;42.47;25.77;;;;;;;;;;5032979;28;20480;-54
2021/12/05 12:36:04;;;;;;;33.13;20.10;;;;;;;;;;5033108;28;20385;-60
2021/12/05 12:38:30;;;;;;;39.05;19.85;;;;;;;;;;5032652;28;20535;-58
2021/12/05 12:40:58;;;;;;;27.80;16.48;;;;;;;;;;5032345;28;20029;-58
2021/12/05 12:43:43;;;;;;;51.35;25.98;;;;;;;;;;5032500;28;20025;-57
2021/12/05 12:46:17;;;;;;;32.00;18.88;;;;;;;;;;5029599;28;20030;-56
2021/12/05 12:48:44;;;;;;;28.42;18.42;;;;;;;;;;5030265;28;20424;-55
2021/12/05 12:51:24;;;;;;;29.05;18.77;;;;;;;;;;5030820;28;20052;-52
2021/12/05 12:53:54;;;;;;;28.20;16.58;;;;;;;;;;5032620;28;20474;-52
2021/12/05 12:56:23;;;;;;;32.70;17.67;;;;;;;;;;5032833;28;20029;-55
2021/12/05 12:58:55;;;;;;;29.95;18.15;;;;;;;;;;5032449;28;20022;-58
2021/12/05 13:04:29;;;;;;;30.05;16.85;;;;;;;;;;5032779;28;20021;-58
2021/12/05 13:12:34;;;;;;;25.48;14.60;;;;;;;;;;5017225;28;20064;-57
2021/12/05 13:15:01;;;;;;;30.30;16.67;;;;;;;;;;5019839;28;20030;-56
2021/12/05 13:17:38;;;;;;;25.65;14.77;;;;;;;;;;5031143;28;20079;-62
2021/12/05 13:20:04;;;;;;;35.05;16.85;;;;;;;;;;5032163;28;20096;-56
2021/12/05 13:22:31;;;;;;;22.23;11.95;;;;;;;;;;5031311;28;20021;-58
2021/12/05 13:25:08;;;;;;;30.20;14.32;;;;;;;;;;4987361;28;1313731;-53
2021/12/05 13:27:37;;;;;;;24.55;13.43;;;;;;;;;;5032134;28;20057;-58
2021/12/05 13:30:03;;;;;;;21.90;10.82;;;;;;;;;;5031852;28;20117;-58
2021/12/05 13:32:31;;;;;;;19.05;10.23;;;;;;;;;;5037045;28;20025;-55
2021/12/05 13:35:01;;;;;;;19.42;9.85;;;;;;;;;;5037135;28;20061;-55
2021/12/05 13:37:32;;;;;;;25.67;11.50;;;;;;;;;;5037518;28;20029;-61
2021/12/05 13:40:10;;;;;;;23.50;11.27;;;;;;;;;;5037227;28;20021;-53
2021/12/05 13:42:48;;;;;;;19.50;10.50;;;;;;;;;;5036386;28;20025;-61
2021/12/05 13:45:27;;;;;;;17.80;9.82;;;;;;;;;;5035485;28;20398;-54
2021/12/05 13:47:53;;;;;;;21.33;9.70;;;;;;;;;;5036456;28;20061;-54
2021/12/05 13:52:57;;;;;;;18.10;8.90;;;;;;;;;;5037153;28;20061;-56
2021/12/05 13:55:42;;;;;;;25.80;12.57;;;;;;;;;;5035800;28;20029;-52
2021/12/05 13:58:14;;;;;;;37.45;19.42;;;;;;;;;;5035955;28;20514;-52
2021/12/05 14:00:41;;;;;;;20.67;12.73;;;;;;;;;;5035555;28;20057;-54
2021/12/05 14:03:08;;;;;;;20.77;9.63;;;;;;;;;;5017121;28;20109;-62
2021/12/05 14:05:34;;;;;;;19.63;11.02;;;;;;;;;;5020584;28;20076;-55
2021/12/05 14:08:00;;;;;;;21.98;10.25;;;;;;;;;;5015637;28;20072;-58
2021/12/05 14:10:26;;;;;;;15.13;9.73;;;;;;;;;;5015286;28;20096;-58
2021/12/05 14:12:53;;;;;;;22.73;12.93;;;;;;;;;;5027646;28;20026;-57
2021/12/05 14:15:19;;;;;;;18.75;9.98;;;;;;;;;;5035720;28;20036;-54
2021/12/05 14:17:48;;;;;;;20.38;11.18;;;;;;;;;;5035671;28;20045;-58
2021/12/05 14:20:25;;;;;;;19.88;10.70;;;;;;;;;;5034142;28;20352;-55
2021/12/05 14:22:52;;;;;;;21.40;10.43;;;;;;;;;;5035183;28;20462;-56
2021/12/05 14:25:19;;;;;;;28.80;12.60;;;;;;;;;;5034926;28;20065;-52
2021/12/05 14:27:48;;;;;;;25.05;12.68;;;;;;;;;;5034304;28;20034;-62
2021/12/05 14:30:18;;;;;;;28.70;13.90;;;;;;;;;;5034523;28;20029;-58
2021/12/05 14:32:45;;;;;;;21.52;10.82;;;;;;;;;;5030589;28;20052;-65
2021/12/05 14:35:15;;;;;;;27.02;14.88;;;;;;;;;;5023355;28;20069;-56
2021/12/05 14:37:43;;;;;;;29.65;13.70;;;;;;;;;;5016257;28;20101;-64
2021/12/05 14:40:10;;;;;;;34.50;16.00;;;;;;;;;;5048233;28;20025;-64
2021/12/05 14:42:38;;;;;;;40.42;17.77;;;;;;;;;;5047643;28;20033;-58
2021/12/05 14:45:07;;;;;;;32.30;16.15;;;;;;;;;;5047894;28;20514;-59
2021/12/05 14:47:36;;;;;;;76.93;37.45;;;;;;;;;;5048219;28;20036;-61
2021/12/05 14:50:05;;;;;;;39.97;22.27;;;;;;;;;;5048422;28;20035;-56
2021/12/05 14:52:34;;;;;;;53.10;24.83;;;;;;;;;;5015605;28;20034;-57
2021/12/05 14:55:01;;;;;;;82.75;33.17;;;;;;;;;;5015734;28;20112;-58
2021/12/05 14:57:30;;;;;;;80.30;35.50;;;;;;;;;;5016659;28;20487;-57
2021/12/05 15:00:19;;;;;;;79.18;36.30;;;;;;;;;;5035537;28;20025;-56
2021/12/05 15:02:55;;;;;;;52.85;25.13;;;;;;;;;;5032486;28;20029;-59
2021/12/05 15:05:30;;;;;;;42.17;22.42;;;;;;;;;;5034390;28;20116;-58
2021/12/05 15:08:04;;;;;;;60.45;30.30;;;;;;;;;;5030060;28;20025;-55
2021/12/05 15:10:31;;;;;;;78.57;38.20;;;;;;;;;;5016800;28;20029;-57
2021/12/05 15:12:57;;;;;;;60.80;33.20;;;;;;;;;;5015060;28;20026;-58
2021/12/05 15:15:25;;;;;;;71.30;37.33;;;;;;;;;;5015125;28;20042;-54
2021/12/05 15:17:52;;;;;;;48.08;26.60;;;;;;;;;;5015279;28;20050;-57
2021/12/05 15:20:20;;;;;;;54.50;27.85;;;;;;;;;;5015695;28;20022;-57
2021/12/05 15:22:49;;;;;;;57.63;28.75;;;;;;;;;;5015537;28;20096;-58
2021/12/05 15:25:17;;;;;;;52.35;24.85;;;;;;;;;;5014969;28;20054;-56
2021/12/05 15:27:44;;;;;;;52.03;25.77;;;;;;;;;;5013174;28;20040;-59
2021/12/05 15:30:13;;;;;;;48.00;23.00;;;;;;;;;;5015095;28;20026;-59
2021/12/05 15:32:39;;;;;;;41.38;19.77;;;;;;;;;;5015030;28;20156;-59
2021/12/05 15:35:11;;;;;;;35.63;17.25;;;;;;;;;;5015296;28;20452;-53
2021/12/05 15:37:37;;;;;;;37.80;17.42;;;;;;;;;;5015131;28;20483;-58
2021/12/05 15:40:05;;;;;;;40.35;19.35;;;;;;;;;;5014837;28;20479;-55
2021/12/05 15:42:33;;;;;;;40.78;17.52;;;;;;;;;;5013008;28;20022;-57
2021/12/05 15:45:00;;;;;;;33.83;16.48;;;;;;;;;;5014233;28;20121;-57
2021/12/05 15:47:29;;;;;;;27.65;15.10;;;;;;;;;;5013316;28;20108;-54
2021/12/05 15:50:01;;;;;;;32.08;18.15;;;;;;;;;;5014994;28;20018;-55
2021/12/05 15:52:35;;;;;;;34.90;19.08;;;;;;;;;;5015023;28;20022;-55
2021/12/05 15:55:05;;;;;;;37.65;19.08;;;;;;;;;;5014351;28;20105;-60
2021/12/05 15:57:36;;;;;;;43.90;22.55;;;;;;;;;;5014564;28;20490;-58
2021/12/05 16:00:11;;;;;;;65.80;35.63;;;;;;;;;;5015033;28;20026;-56
2021/12/05 16:02:40;;;;;;;68.32;34.00;;;;;;;;;;5015416;28;20045;-53
2021/12/05 16:05:13;;;;;;;59.17;28.98;;;;;;;;;;5014668;28;20463;-56
2021/12/05 16:07:39;;;;;;;50.35;22.73;;;;;;;;;;5014876;28;20040;-57
2021/12/05 16:10:10;;;;;;;41.88;20.45;;;;;;;;;;5014194;28;20049;-56
2021/12/05 16:12:38;;;;;;;41.30;20.88;;;;;;;;;;5014760;28;20030;-58
2021/12/05 16:15:05;;;;;;;39.88;21.42;;;;;;;;;;5014375;28;20029;-56
2021/12/05 16:17:31;;;;;;;40.40;21.05;;;;;;;;;;5014355;28;20021;-58
2021/12/05 16:20:10;;;;;;;43.38;20.70;;;;;;;;;;5014429;28;20022;-52
2021/12/05 16:22:54;;;;;;;42.10;19.35;;;;;;;;;;5014408;28;20018;-54
2021/12/05 16:25:21;;;;;;;60.10;27.75;;;;;;;;;;5014865;28;20050;-56
2021/12/05 16:27:48;;;;;;;59.67;27.42;;;;;;;;;;5014554;28;20017;-56
2021/12/05 16:30:24;;;;;;;51.33;26.20;;;;;;;;;;5013463;28;20058;-59
2021/12/05 16:32:52;;;;;;;63.17;29.80;;;;;;;;;;5014128;28;20352;-58
2021/12/05 16:35:25;;;;;;;64.22;30.70;;;;;;;;;;5013902;28;20103;-59
2021/12/05 16:37:51;;;;;;;66.20;31.38;;;;;;;;;;5014440;28;20113;-54
2021/12/05 16:40:17;;;;;;;64.95;31.38;;;;;;;;;;5012954;28;20413;-57
2021/12/05 16:42:44;;;;;;;63.33;30.48;;;;;;;;;;5013795;28;20026;-57
2021/12/05 16:45:11;;;;;;;69.75;33.45;;;;;;;;;;5014290;28;20072;-56
2021/12/05 16:47:37;;;;;;;70.70;33.00;;;;;;;;;;5014121;28;20462;-60
2021/12/05 16:50:06;;;;;;;70.30;33.13;;;;;;;;;;5013834;28;20106;-57
2021/12/05 16:52:36;;;;;;;83.78;34.65;;;;;;;;;;5014056;28;20468;-56
2021/12/05 16:55:19;;;;;;;67.85;33.88;;;;;;;;;;5013169;28;20033;-55
2021/12/05 16:57:55;;;;;;;69.38;31.80;;;;;;;;;;5014432;28;20018;-58
2021/12/05 17:00:24;;;;;;;64.40;30.50;;;;;;;;;;5013818;28;20387;-59
2021/12/05 17:02:54;;;;;;;65.03;30.95;;;;;;;;;;5013745;28;20026;-57
2021/12/05 17:05:24;;;;;;;61.05;29.65;;;;;;;;;;5013112;28;20034;-56
2021/12/05 17:08:00;;;;;;;68.25;31.48;;;;;;;;;;5013429;28;20041;-52
2021/12/05 17:10:26;;;;;;;68.93;31.40;;;;;;;;;;5013929;28;20121;-57
2021/12/05 17:12:58;;;;;;;72.28;33.13;;;;;;;;;;5013932;28;20117;-58
2021/12/05 17:15:26;;;;;;;80.25;36.38;;;;;;;;;;5013926;28;20069;-59
2021/12/05 17:18:00;;;;;;;74.35;37.15;;;;;;;;;;5012599;28;20048;-57
2021/12/05 17:20:28;;;;;;;79.60;35.25;;;;;;;;;;5013745;28;20022;-58
2021/12/05 17:22:57;;;;;;;90.70;38.00;;;;;;;;;;5013546;28;20070;-56
2021/12/05 17:25:27;;;;;;;80.68;38.80;;;;;;;;;;5012095;28;20119;-53
2021/12/05 17:27:53;;;;;;;79.05;34.92;;;;;;;;;;5013730;28;20110;-57
2021/12/05 17:30:20;;;;;;;77.07;36.35;;;;;;;;;;5013651;28;20029;-56
2021/12/05 17:32:46;;;;;;;88.63;37.13;;;;;;;;;;5013224;28;20030;-54
2021/12/05 17:35:12;;;;;;;73.55;34.42;;;;;;;;;;5010942;28;20042;-56
2021/12/05 17:37:43;;;;;;;78.88;38.92;;;;;;;;;;5017109;28;20022;-59
2021/12/05 17:40:10;;;;;;;82.20;36.58;;;;;;;;;;5021776;28;20399;-59
2021/12/05 17:42:36;;;;;;;85.28;37.55;;;;;;;;;;5013273;28;20053;-57
2021/12/05 17:45:04;;;;;;;85.50;38.63;;;;;;;;;;5013304;28;20029;-56
2021/12/05 17:47:31;;;;;;;86.07;41.00;;;;;;;;;;5013389;28;20030;-55
2021/12/05 17:49:59;;;;;;;72.57;34.88;;;;;;;;;;5013336;28;20101;-54
2021/12/05 17:52:27;;;;;;;81.80;38.15;;;;;;;;;;5012982;28;20347;-60
2021/12/05 17:55:00;;;;;;;85.40;38.60;;;;;;;;;;5012316;28;20135;-59
2021/12/05 17:57:38;;;;;;;116.13;51.90;;;;;;;;;;5030731;28;20025;-59
2021/12/05 18:00:21;;;;;;;106.80;46.05;;;;;;;;;;5031559;28;20107;-53
2021/12/05 18:02:53;;;;;;;139.88;66.10;;;;;;;;;;5030548;28;20017;-55
2021/12/05 18:05:39;;;;;;;113.78;52.00;;;;;;;;;;5029430;28;20064;-60
2021/12/05 18:08:10;;;;;;;124.28;56.20;;;;;;;;;;5030097;28;20033;-59
2021/12/05 18:10:40;;;;;;;128.23;57.80;;;;;;;;;;5028371;28;20021;-56
2021/12/05 18:13:11;;;;;;;144.82;67.95;;;;;;;;;;5029931;28;20033;-61
2021/12/05 18:15:45;;;;;;;139.27;63.60;;;;;;;;;;5061773;28;20390;-54
2021/12/05 18:18:13;;;;;;;132.55;62.72;;;;;;;;;;5036176;28;20025;-56
2021/12/05 18:20:44;;;;;;;118.93;53.65;;;;;;;;;;5035142;28;20052;-61
2021/12/05 18:23:12;;;;;;;156.73;65.22;;;;;;;;;;5035219;28;20489;-60
2021/12/05 18:25:42;;;;;;;160.35;71.35;;;;;;;;;;5035345;28;20125;-58
2021/12/05 18:28:09;;;;;;;129.18;60.78;;;;;;;;;;5035470;28;20018;-58
2021/12/05 18:30:37;;;;;;;115.68;53.55;;;;;;;;;;5035928;28;20022;-56
2021/12/05 18:33:05;;;;;;;123.78;53.13;;;;;;;;;;5035485;28;20509;-60
2021/12/05 18:35:32;;;;;;;123.47;51.83;;;;;;;;;;5035412;28;20095;-60
2021/12/05 18:37:59;;;;;;;122.22;56.30;;;;;;;;;;5035520;28;20508;-56
2021/12/05 18:40:25;;;;;;;149.80;67.93;;;;;;;;;;5035701;28;20026;-60
2021/12/05 18:42:52;;;;;;;130.07;58.15;;;;;;;;;;5034818;28;20374;-57
2021/12/05 18:45:21;;;;;;;117.40;54.70;;;;;;;;;;5034909;28;20040;-59
2021/12/05 18:47:47;;;;;;;88.05;41.08;;;;;;;;;;5034310;28;20143;-60
2021/12/05 18:50:13;;;;;;;92.38;43.13;;;;;;;;;;5035614;28;20034;-59
2021/12/05 18:52:43;;;;;;;90.50;41.00;;;;;;;;;;5035427;28;20070;-62
2021/12/05 18:55:11;;;;;;;53.17;26.85;;;;;;;;;;5036111;28;20079;-62
2021/12/05 18:57:39;;;;;;;51.55;24.05;;;;;;;;;;5035715;28;20043;-61
2021/12/05 19:00:14;;;;;;;49.50;24.70;;;;;;;;;;5036200;28;20021;-59
2021/12/05 19:05:45;;;;;;;32.78;16.15;;;;;;;;;;5035472;28;20071;-59
2021/12/05 19:13:25;;;;;;;34.03;17.77;;;;;;;;;;5015599;28;20034;-58
2021/12/05 19:15:53;;;;;;;35.45;16.27;;;;;;;;;;5015389;28;20030;-59
2021/12/05 19:18:19;;;;;;;36.53;16.08;;;;;;;;;;5015305;28;20049;-60
2021/12/05 19:20:46;;;;;;;31.98;16.45;;;;;;;;;;5015601;28;20022;-55
2021/12/05 19:23:12;;;;;;;31.02;15.63;;;;;;;;;;5015173;28;20022;-58
2021/12/05 19:25:40;;;;;;;54.22;26.98;;;;;;;;;;5015742;28;20049;-58
2021/12/05 19:28:10;;;;;;;48.50;23.38;;;;;;;;;;5014386;28;20052;-59
2021/12/05 19:30:56;;;;;;;44.90;21.27;;;;;;;;;;5015283;28;20080;-55
2021/12/05 19:33:24;;;;;;;40.53;19.02;;;;;;;;;;5015542;28;20053;-59
2021/12/05 19:35:51;;;;;;;41.33;17.77;;;;;;;;;;5014996;28;20481;-59
2021/12/05 19:38:23;;;;;;;30.50;13.52;;;;;;;;;;5014046;28;20038;-58
2021/12/05 19:40:49;;;;;;;29.55;14.68;;;;;;;;;;5015260;28;20183;-56
2021/12/05 19:43:17;;;;;;;28.30;15.48;;;;;;;;;;5015331;28;20061;-53
2021/12/05 19:45:43;;;;;;;43.10;19.42;;;;;;;;;;5014707;28;20430;-56
2021/12/05 19:48:09;;;;;;;37.90;18.50;;;;;;;;;;5014767;28;20521;-51
2021/12/05 19:50:37;;;;;;;29.67;14.48;;;;;;;;;;5015236;28;20026;-59
2021/12/05 19:53:04;;;;;;;33.38;15.80;;;;;;;;;;5014932;28;20025;-60
2021/12/05 19:55:30;;;;;;;54.75;25.23;;;;;;;;;;5014815;28;20387;-53
2021/12/05 19:57:56;;;;;;;107.55;49.45;;;;;;;;;;5015138;28;20471;-62
2021/12/05 20:00:24;;;;;;;26.25;13.23;;;;;;;;;;5013641;28;20030;-58
2021/12/05 20:02:51;;;;;;;32.58;16.80;;;;;;;;;;5014639;28;20095;-56
2021/12/05 20:05:21;;;;;;;36.00;18.15;;;;;;;;;;5015101;28;20061;-56
2021/12/05 20:07:47;;;;;;;37.65;18.42;;;;;;;;;;5015121;28;20018;-54
2021/12/05 20:10:15;;;;;;;34.95;17.30;;;;;;;;;;5017391;28;20374;-53
2021/12/05 20:12:41;;;;;;;28.30;12.98;;;;;;;;;;5033545;28;20470;-58
2021/12/05 20:15:09;;;;;;;23.98;10.60;;;;;;;;;;5034061;28;20033;-59
2021/12/05 20:17:35;;;;;;;18.98;9.25;;;;;;;;;;5033330;28;20033;-59
2021/12/05 20:20:03;;;;;;;22.02;10.25;;;;;;;;;;5033348;28;20092;-54
2021/12/05 20:22:32;;;;;;;22.75;9.85;;;;;;;;;;5033521;28;20033;-59
2021/12/05 20:25:03;;;;;;;25.05;10.80;;;;;;;;;;5034400;28;20053;-61